sensor_id;sensor_type;location;lat;lon;timestamp;P1;durP1;ratioP1;P2;durP2;ratioP2
12480;SDS011;6305;48.398;11.762;2022-08-19T00:00:49;17.02;;;13.32;;
12480;SDS011;6305;48.398;11.762;2022-08-19T00:03:16;15.00;;;12.45;;
12480;SDS011;6305;48.398;11.762;2022-08-19T00:05:43;16.55;;;13.10;;
12480;SDS011;6305;48.398;11.762;2022-08-19T00:08:10;15.75;;;12.48;;
12480;SDS011;6305;48.398;11.762;2022-08-19T00:10:37;16.05;;;11.82;;
12480;SDS011;6305;48.398;11.762;2022-08-19T00:13:03;16.50;;;11.82;;
12480;SDS011;6305;48.398;11.762;2022-08-19T00:15:32;13.52;;;10.90;;
12480;SDS011;6305;48.398;11.762;2022-08-19T00:17:58;12.88;;;9.55;;
12480;SDS011;6305;48.398;11.762;2022-08-19T00:20:25;12.05;;;9.52;;
12480;SDS011;6305;48.398;11.762;2022-08-19T00:22:52;10.88;;;9.32;;
12480;SDS011;6305;48.398;11.762;2022-08-19T00:25:19;12.15;;;9.60;;
12480;SDS011;6305;48.398;11.762;2022-08-19T00:27:45;10.43;;;9.00;;
12480;SDS011;6305;48.398;11.762;2022-08-19T00:30:12;11.30;;;9.38;;
12480;SDS011;6305;48.398;11.762;2022-08-19T00:32:41;11.95;;;9.38;;
12480;SDS011;6305;48.398;11.762;2022-08-19T00:35:08;11.13;;;8.73;;
12480;SDS011;6305;48.398;11.762;2022-08-19T00:37:36;10.98;;;8.40;;
12480;SDS011;6305;48.398;11.762;2022-08-19T00:40:08;11.20;;;8.68;;
12480;SDS011;6305;48.398;11.762;2022-08-19T00:42:37;11.60;;;9.15;;
12480;SDS011;6305;48.398;11.762;2022-08-19T00:45:05;9.10;;;8.15;;
12480;SDS011;6305;48.398;11.762;2022-08-19T00:47:52;10.02;;;8.30;;
12480;SDS011;6305;48.398;11.762;2022-08-19T00:50:19;10.07;;;8.07;;
12480;SDS011;6305;48.398;11.762;2022-08-19T00:52:48;10.43;;;7.90;;
12480;SDS011;6305;48.398;11.762;2022-08-19T00:55:17;8.60;;;7.47;;
12480;SDS011;6305;48.398;11.762;2022-08-19T00:57:51;9.43;;;7.72;;
12480;SDS011;6305;48.398;11.762;2022-08-19T01:00:21;10.25;;;7.82;;
12480;SDS011;6305;48.398;11.762;2022-08-19T01:02:51;12.25;;;8.88;;
12480;SDS011;6305;48.398;11.762;2022-08-19T01:05:20;10.00;;;8.07;;
12480;SDS011;6305;48.398;11.762;2022-08-19T01:07:48;10.35;;;8.90;;
12480;SDS011;6305;48.398;11.762;2022-08-19T01:10:17;11.15;;;8.38;;
12480;SDS011;6305;48.398;11.762;2022-08-19T01:12:46;12.02;;;8.50;;
12480;SDS011;6305;48.398;11.762;2022-08-19T01:15:16;10.60;;;8.27;;
12480;SDS011;6305;48.398;11.762;2022-08-19T01:17:44;11.35;;;8.50;;
12480;SDS011;6305;48.398;11.762;2022-08-19T01:20:14;9.23;;;8.13;;
12480;SDS011;6305;48.398;11.762;2022-08-19T01:22:46;11.02;;;8.43;;
12480;SDS011;6305;48.398;11.762;2022-08-19T01:25:14;10.13;;;8.32;;
12480;SDS011;6305;48.398;11.762;2022-08-19T01:27:44;9.68;;;8.38;;
12480;SDS011;6305;48.398;11.762;2022-08-19T01:30:15;11.82;;;9.10;;
12480;SDS011;6305;48.398;11.762;2022-08-19T01:32:43;11.00;;;8.80;;
12480;SDS011;6305;48.398;11.762;2022-08-19T01:35:10;10.18;;;8.13;;
12480;SDS011;6305;48.398;11.762;2022-08-19T01:37:42;11.05;;;9.13;;
12480;SDS011;6305;48.398;11.762;2022-08-19T01:40:11;11.82;;;9.10;;
12480;SDS011;6305;48.398;11.762;2022-08-19T01:42:39;12.52;;;9.40;;
12480;SDS011;6305;48.398;11.762;2022-08-19T01:45:06;10.77;;;8.60;;
12480;SDS011;6305;48.398;11.762;2022-08-19T01:47:34;10.38;;;8.65;;
12480;SDS011;6305;48.398;11.762;2022-08-19T01:50:02;10.85;;;8.93;;
12480;SDS011;6305;48.398;11.762;2022-08-19T01:52:30;11.77;;;9.00;;
12480;SDS011;6305;48.398;11.762;2022-08-19T01:54:57;12.95;;;9.50;;
12480;SDS011;6305;48.398;11.762;2022-08-19T01:57:25;9.85;;;8.45;;
12480;SDS011;6305;48.398;11.762;2022-08-19T01:59:52;11.80;;;9.10;;
12480;SDS011;6305;48.398;11.762;2022-08-19T02:02:19;9.88;;;8.50;;
12480;SDS011;6305;48.398;11.762;2022-08-19T02:04:46;11.00;;;8.82;;
12480;SDS011;6305;48.398;11.762;2022-08-19T02:07:15;11.65;;;8.90;;
12480;SDS011;6305;48.398;11.762;2022-08-19T02:09:44;11.30;;;8.93;;
12480;SDS011;6305;48.398;11.762;2022-08-19T02:12:12;11.05;;;9.13;;
12480;SDS011;6305;48.398;11.762;2022-08-19T02:14:40;10.55;;;8.77;;
12480;SDS011;6305;48.398;11.762;2022-08-19T02:17:06;10.70;;;8.35;;
12480;SDS011;6305;48.398;11.762;2022-08-19T02:19:33;11.00;;;8.52;;
12480;SDS011;6305;48.398;11.762;2022-08-19T02:22:00;9.32;;;8.07;;
12480;SDS011;6305;48.398;11.762;2022-08-19T02:24:27;11.70;;;7.97;;
12480;SDS011;6305;48.398;11.762;2022-08-19T02:26:54;9.90;;;7.95;;
12480;SDS011;6305;48.398;11.762;2022-08-19T02:29:20;9.65;;;8.32;;
12480;SDS011;6305;48.398;11.762;2022-08-19T02:31:48;10.60;;;8.20;;
12480;SDS011;6305;48.398;11.762;2022-08-19T02:34:16;10.18;;;8.80;;
12480;SDS011;6305;48.398;11.762;2022-08-19T02:36:43;9.70;;;8.27;;
12480;SDS011;6305;48.398;11.762;2022-08-19T02:39:10;10.07;;;8.25;;
12480;SDS011;6305;48.398;11.762;2022-08-19T02:41:36;9.75;;;8.05;;
12480;SDS011;6305;48.398;11.762;2022-08-19T02:44:03;9.05;;;7.70;;
12480;SDS011;6305;48.398;11.762;2022-08-19T02:46:30;8.25;;;7.07;;
12480;SDS011;6305;48.398;11.762;2022-08-19T02:49:00;8.75;;;7.22;;
12480;SDS011;6305;48.398;11.762;2022-08-19T02:51:29;8.45;;;6.75;;
12480;SDS011;6305;48.398;11.762;2022-08-19T02:53:58;8.52;;;7.30;;
12480;SDS011;6305;48.398;11.762;2022-08-19T02:56:25;7.07;;;6.30;;
12480;SDS011;6305;48.398;11.762;2022-08-19T02:58:53;6.22;;;5.50;;
12480;SDS011;6305;48.398;11.762;2022-08-19T03:01:20;7.80;;;5.93;;
12480;SDS011;6305;48.398;11.762;2022-08-19T03:03:49;6.45;;;5.60;;
12480;SDS011;6305;48.398;11.762;2022-08-19T03:06:18;7.22;;;5.57;;
12480;SDS011;6305;48.398;11.762;2022-08-19T03:08:46;5.55;;;5.03;;
12480;SDS011;6305;48.398;11.762;2022-08-19T03:11:15;5.40;;;4.90;;
12480;SDS011;6305;48.398;11.762;2022-08-19T03:13:43;5.25;;;4.75;;
12480;SDS011;6305;48.398;11.762;2022-08-19T03:16:11;4.85;;;4.38;;
12480;SDS011;6305;48.398;11.762;2022-08-19T03:18:38;5.20;;;4.70;;
12480;SDS011;6305;48.398;11.762;2022-08-19T03:21:05;7.15;;;5.63;;
12480;SDS011;6305;48.398;11.762;2022-08-19T03:23:34;5.18;;;4.68;;
12480;SDS011;6305;48.398;11.762;2022-08-19T03:26:02;5.75;;;5.15;;
12480;SDS011;6305;48.398;11.762;2022-08-19T03:28:31;5.00;;;4.45;;
12480;SDS011;6305;48.398;11.762;2022-08-19T03:30:59;5.97;;;5.18;;
12480;SDS011;6305;48.398;11.762;2022-08-19T03:33:28;6.10;;;4.95;;
12480;SDS011;6305;48.398;11.762;2022-08-19T03:35:59;8.50;;;5.35;;
12480;SDS011;6305;48.398;11.762;2022-08-19T03:38:27;6.63;;;5.18;;
12480;SDS011;6305;48.398;11.762;2022-08-19T03:40:56;5.32;;;4.82;;
12480;SDS011;6305;48.398;11.762;2022-08-19T03:43:23;6.28;;;5.03;;
12480;SDS011;6305;48.398;11.762;2022-08-19T03:45:59;7.13;;;5.90;;
12480;SDS011;6305;48.398;11.762;2022-08-19T03:48:29;6.78;;;5.57;;
12480;SDS011;6305;48.398;11.762;2022-08-19T03:50:56;7.13;;;5.93;;
12480;SDS011;6305;48.398;11.762;2022-08-19T03:53:24;6.35;;;5.32;;
12480;SDS011;6305;48.398;11.762;2022-08-19T03:55:51;7.13;;;6.03;;
12480;SDS011;6305;48.398;11.762;2022-08-19T03:58:20;7.32;;;6.00;;
12480;SDS011;6305;48.398;11.762;2022-08-19T04:00:47;7.70;;;6.45;;
12480;SDS011;6305;48.398;11.762;2022-08-19T04:03:14;6.70;;;5.72;;
12480;SDS011;6305;48.398;11.762;2022-08-19T04:05:44;8.07;;;6.90;;
12480;SDS011;6305;48.398;11.762;2022-08-19T04:08:11;10.18;;;7.45;;
12480;SDS011;6305;48.398;11.762;2022-08-19T04:10:43;7.68;;;6.75;;
12480;SDS011;6305;48.398;11.762;2022-08-19T04:13:10;8.10;;;6.85;;
12480;SDS011;6305;48.398;11.762;2022-08-19T04:15:40;8.73;;;6.40;;
12480;SDS011;6305;48.398;11.762;2022-08-19T04:18:08;9.38;;;7.15;;
12480;SDS011;6305;48.398;11.762;2022-08-19T04:20:38;8.43;;;7.18;;
12480;SDS011;6305;48.398;11.762;2022-08-19T04:23:06;7.28;;;6.57;;
12480;SDS011;6305;48.398;11.762;2022-08-19T04:25:37;8.18;;;6.75;;
12480;SDS011;6305;48.398;11.762;2022-08-19T04:28:04;10.48;;;7.85;;
12480;SDS011;6305;48.398;11.762;2022-08-19T04:30:36;9.85;;;8.40;;
12480;SDS011;6305;48.398;11.762;2022-08-19T04:33:06;8.60;;;7.10;;
12480;SDS011;6305;48.398;11.762;2022-08-19T04:35:36;9.65;;;8.23;;
12480;SDS011;6305;48.398;11.762;2022-08-19T04:38:05;9.55;;;7.57;;
12480;SDS011;6305;48.398;11.762;2022-08-19T04:40:32;9.35;;;7.80;;
12480;SDS011;6305;48.398;11.762;2022-08-19T04:43:16;8.52;;;7.47;;
12480;SDS011;6305;48.398;11.762;2022-08-19T04:45:45;10.15;;;7.55;;
12480;SDS011;6305;48.398;11.762;2022-08-19T04:48:12;9.80;;;8.30;;
12480;SDS011;6305;48.398;11.762;2022-08-19T04:50:39;10.50;;;7.32;;
12480;SDS011;6305;48.398;11.762;2022-08-19T04:53:08;9.23;;;7.68;;
12480;SDS011;6305;48.398;11.762;2022-08-19T04:55:38;9.73;;;8.18;;
12480;SDS011;6305;48.398;11.762;2022-08-19T04:58:05;9.90;;;8.40;;
12480;SDS011;6305;48.398;11.762;2022-08-19T05:00:32;11.32;;;9.52;;
12480;SDS011;6305;48.398;11.762;2022-08-19T05:03:00;10.07;;;8.52;;
12480;SDS011;6305;48.398;11.762;2022-08-19T05:05:27;10.52;;;8.45;;
12480;SDS011;6305;48.398;11.762;2022-08-19T05:07:56;10.38;;;8.82;;
12480;SDS011;6305;48.398;11.762;2022-08-19T05:10:23;10.65;;;7.88;;
12480;SDS011;6305;48.398;11.762;2022-08-19T05:12:50;10.40;;;8.63;;
12480;SDS011;6305;48.398;11.762;2022-08-19T05:15:17;13.27;;;9.02;;
12480;SDS011;6305;48.398;11.762;2022-08-19T05:17:44;11.07;;;9.20;;
12480;SDS011;6305;48.398;11.762;2022-08-19T05:20:32;10.85;;;8.65;;
12480;SDS011;6305;48.398;11.762;2022-08-19T05:23:16;10.15;;;8.80;;
12480;SDS011;6305;48.398;11.762;2022-08-19T05:25:43;11.02;;;8.80;;
12480;SDS011;6305;48.398;11.762;2022-08-19T05:28:10;11.15;;;9.00;;
12480;SDS011;6305;48.398;11.762;2022-08-19T05:30:36;11.77;;;8.55;;
12480;SDS011;6305;48.398;11.762;2022-08-19T05:33:05;9.98;;;8.60;;
12480;SDS011;6305;48.398;11.762;2022-08-19T05:35:37;11.25;;;8.75;;
12480;SDS011;6305;48.398;11.762;2022-08-19T05:38:06;10.32;;;8.70;;
12480;SDS011;6305;48.398;11.762;2022-08-19T05:40:34;12.35;;;9.63;;
12480;SDS011;6305;48.398;11.762;2022-08-19T05:43:02;11.63;;;9.15;;
12480;SDS011;6305;48.398;11.762;2022-08-19T05:45:29;11.02;;;9.52;;
12480;SDS011;6305;48.398;11.762;2022-08-19T05:47:56;10.48;;;9.13;;
12480;SDS011;6305;48.398;11.762;2022-08-19T05:50:23;11.80;;;9.88;;
12480;SDS011;6305;48.398;11.762;2022-08-19T05:52:52;13.93;;;10.05;;
12480;SDS011;6305;48.398;11.762;2022-08-19T05:55:19;12.25;;;9.77;;
12480;SDS011;6305;48.398;11.762;2022-08-19T05:57:47;12.73;;;10.45;;
12480;SDS011;6305;48.398;11.762;2022-08-19T06:00:15;12.73;;;10.48;;
12480;SDS011;6305;48.398;11.762;2022-08-19T06:02:42;12.85;;;10.20;;
12480;SDS011;6305;48.398;11.762;2022-08-19T06:05:09;14.38;;;10.95;;
12480;SDS011;6305;48.398;11.762;2022-08-19T06:07:36;15.35;;;11.75;;
12480;SDS011;6305;48.398;11.762;2022-08-19T06:10:06;15.40;;;11.88;;
12480;SDS011;6305;48.398;11.762;2022-08-19T06:12:35;14.27;;;11.45;;
12480;SDS011;6305;48.398;11.762;2022-08-19T06:15:03;15.70;;;11.15;;
12480;SDS011;6305;48.398;11.762;2022-08-19T06:17:33;14.45;;;11.38;;
12480;SDS011;6305;48.398;11.762;2022-08-19T06:20:00;15.82;;;11.15;;
12480;SDS011;6305;48.398;11.762;2022-08-19T06:22:28;15.88;;;12.27;;
12480;SDS011;6305;48.398;11.762;2022-08-19T06:24:55;15.77;;;12.27;;
12480;SDS011;6305;48.398;11.762;2022-08-19T06:27:23;16.75;;;12.73;;
12480;SDS011;6305;48.398;11.762;2022-08-19T06:29:50;17.88;;;12.77;;
12480;SDS011;6305;48.398;11.762;2022-08-19T06:32:16;16.05;;;12.55;;
12480;SDS011;6305;48.398;11.762;2022-08-19T06:34:44;17.60;;;12.57;;
12480;SDS011;6305;48.398;11.762;2022-08-19T06:37:11;17.13;;;12.93;;
12480;SDS011;6305;48.398;11.762;2022-08-19T06:39:39;17.67;;;13.40;;
12480;SDS011;6305;48.398;11.762;2022-08-19T06:42:08;16.83;;;13.13;;
12480;SDS011;6305;48.398;11.762;2022-08-19T06:44:40;16.20;;;13.80;;
12480;SDS011;6305;48.398;11.762;2022-08-19T06:47:09;17.95;;;13.10;;
12480;SDS011;6305;48.398;11.762;2022-08-19T06:49:37;17.95;;;12.82;;
12480;SDS011;6305;48.398;11.762;2022-08-19T06:52:04;18.42;;;12.85;;
12480;SDS011;6305;48.398;11.762;2022-08-19T06:54:31;16.88;;;13.30;;
12480;SDS011;6305;48.398;11.762;2022-08-19T06:56:59;18.08;;;13.70;;
12480;SDS011;6305;48.398;11.762;2022-08-19T06:59:27;18.88;;;14.88;;
12480;SDS011;6305;48.398;11.762;2022-08-19T07:01:59;21.60;;;15.02;;
12480;SDS011;6305;48.398;11.762;2022-08-19T07:04:29;21.75;;;15.25;;
12480;SDS011;6305;48.398;11.762;2022-08-19T07:06:57;20.08;;;15.45;;
12480;SDS011;6305;48.398;11.762;2022-08-19T07:09:26;21.67;;;15.95;;
12480;SDS011;6305;48.398;11.762;2022-08-19T07:11:53;23.27;;;16.17;;
12480;SDS011;6305;48.398;11.762;2022-08-19T07:14:23;27.17;;;17.92;;
12480;SDS011;6305;48.398;11.762;2022-08-19T07:16:51;28.23;;;18.63;;
12480;SDS011;6305;48.398;11.762;2022-08-19T07:19:23;25.00;;;17.30;;
12480;SDS011;6305;48.398;11.762;2022-08-19T07:21:52;24.35;;;17.17;;
12480;SDS011;6305;48.398;11.762;2022-08-19T07:24:21;23.52;;;18.20;;
12480;SDS011;6305;48.398;11.762;2022-08-19T07:26:49;25.38;;;18.15;;
12480;SDS011;6305;48.398;11.762;2022-08-19T07:29:17;24.30;;;16.55;;
12480;SDS011;6305;48.398;11.762;2022-08-19T07:31:47;23.40;;;17.48;;
12480;SDS011;6305;48.398;11.762;2022-08-19T07:34:15;24.23;;;17.60;;
12480;SDS011;6305;48.398;11.762;2022-08-19T07:36:44;24.15;;;18.88;;
12480;SDS011;6305;48.398;11.762;2022-08-19T07:39:13;24.63;;;17.27;;
12480;SDS011;6305;48.398;11.762;2022-08-19T07:41:41;27.67;;;18.98;;
12480;SDS011;6305;48.398;11.762;2022-08-19T07:44:08;25.80;;;18.45;;
12480;SDS011;6305;48.398;11.762;2022-08-19T07:46:36;25.98;;;17.92;;
12480;SDS011;6305;48.398;11.762;2022-08-19T07:49:06;24.95;;;19.15;;
12480;SDS011;6305;48.398;11.762;2022-08-19T07:51:33;25.38;;;18.17;;
12480;SDS011;6305;48.398;11.762;2022-08-19T07:54:02;23.92;;;18.23;;
12480;SDS011;6305;48.398;11.762;2022-08-19T07:56:29;23.80;;;18.35;;
12480;SDS011;6305;48.398;11.762;2022-08-19T07:58:56;24.15;;;17.60;;
12480;SDS011;6305;48.398;11.762;2022-08-19T08:01:24;25.60;;;19.30;;
12480;SDS011;6305;48.398;11.762;2022-08-19T08:03:53;25.48;;;18.55;;
12480;SDS011;6305;48.398;11.762;2022-08-19T08:06:43;28.67;;;20.20;;
12480;SDS011;6305;48.398;11.762;2022-08-19T08:09:29;28.00;;;20.17;;
12480;SDS011;6305;48.398;11.762;2022-08-19T08:12:00;30.13;;;20.50;;
12480;SDS011;6305;48.398;11.762;2022-08-19T08:14:31;29.63;;;21.48;;
12480;SDS011;6305;48.398;11.762;2022-08-19T08:17:02;32.95;;;21.52;;
12480;SDS011;6305;48.398;11.762;2022-08-19T08:19:30;30.63;;;21.40;;
12480;SDS011;6305;48.398;11.762;2022-08-19T08:21:58;32.10;;;22.15;;
12480;SDS011;6305;48.398;11.762;2022-08-19T08:24:26;29.58;;;21.00;;
12480;SDS011;6305;48.398;11.762;2022-08-19T08:26:57;31.58;;;21.83;;
12480;SDS011;6305;48.398;11.762;2022-08-19T08:29:24;30.92;;;20.98;;
12480;SDS011;6305;48.398;11.762;2022-08-19T08:31:52;31.45;;;20.88;;
12480;SDS011;6305;48.398;11.762;2022-08-19T08:34:19;28.20;;;20.35;;
12480;SDS011;6305;48.398;11.762;2022-08-19T08:36:46;27.88;;;19.50;;
12480;SDS011;6305;48.398;11.762;2022-08-19T08:39:14;25.63;;;18.85;;
12480;SDS011;6305;48.398;11.762;2022-08-19T08:41:44;27.58;;;19.17;;
12480;SDS011;6305;48.398;11.762;2022-08-19T08:44:20;25.60;;;17.50;;
12480;SDS011;6305;48.398;11.762;2022-08-19T08:46:49;27.75;;;18.17;;
12480;SDS011;6305;48.398;11.762;2022-08-19T08:49:24;22.20;;;17.73;;
12480;SDS011;6305;48.398;11.762;2022-08-19T08:51:57;22.40;;;17.05;;
12480;SDS011;6305;48.398;11.762;2022-08-19T08:54:30;22.73;;;17.25;;
12480;SDS011;6305;48.398;11.762;2022-08-19T08:56:59;23.15;;;16.77;;
12480;SDS011;6305;48.398;11.762;2022-08-19T08:59:28;26.15;;;17.95;;
12480;SDS011;6305;48.398;11.762;2022-08-19T09:02:00;27.23;;;18.48;;
12480;SDS011;6305;48.398;11.762;2022-08-19T09:04:27;28.05;;;19.40;;
12480;SDS011;6305;48.398;11.762;2022-08-19T09:06:56;26.80;;;19.30;;
12480;SDS011;6305;48.398;11.762;2022-08-19T09:09:33;28.25;;;20.02;;
12480;SDS011;6305;48.398;11.762;2022-08-19T09:12:06;29.15;;;19.20;;
12480;SDS011;6305;48.398;11.762;2022-08-19T09:14:41;30.45;;;19.95;;
12480;SDS011;6305;48.398;11.762;2022-08-19T09:17:13;31.52;;;21.13;;
12480;SDS011;6305;48.398;11.762;2022-08-19T09:19:47;35.47;;;21.90;;
12480;SDS011;6305;48.398;11.762;2022-08-19T09:22:16;32.25;;;21.52;;
12480;SDS011;6305;48.398;11.762;2022-08-19T09:24:46;34.25;;;22.55;;
12480;SDS011;6305;48.398;11.762;2022-08-19T09:27:13;34.20;;;21.88;;
12480;SDS011;6305;48.398;11.762;2022-08-19T09:29:41;35.13;;;23.00;;
12480;SDS011;6305;48.398;11.762;2022-08-19T09:32:08;36.97;;;24.02;;
12480;SDS011;6305;48.398;11.762;2022-08-19T09:34:35;38.20;;;24.92;;
12480;SDS011;6305;48.398;11.762;2022-08-19T09:37:02;41.72;;;25.33;;
12480;SDS011;6305;48.398;11.762;2022-08-19T09:39:30;43.05;;;27.13;;
12480;SDS011;6305;48.398;11.762;2022-08-19T09:41:56;44.97;;;26.42;;
12480;SDS011;6305;48.398;11.762;2022-08-19T09:44:23;42.58;;;26.00;;
12480;SDS011;6305;48.398;11.762;2022-08-19T09:46:51;41.95;;;25.90;;
12480;SDS011;6305;48.398;11.762;2022-08-19T09:49:18;44.90;;;27.55;;
12480;SDS011;6305;48.398;11.762;2022-08-19T09:51:48;40.63;;;26.60;;
12480;SDS011;6305;48.398;11.762;2022-08-19T09:54:15;44.22;;;27.35;;
12480;SDS011;6305;48.398;11.762;2022-08-19T09:56:42;47.28;;;28.27;;
12480;SDS011;6305;48.398;11.762;2022-08-19T09:59:09;49.03;;;27.98;;
12480;SDS011;6305;48.398;11.762;2022-08-19T10:01:37;47.15;;;28.92;;
12480;SDS011;6305;48.398;11.762;2022-08-19T10:04:05;43.35;;;26.65;;
12480;SDS011;6305;48.398;11.762;2022-08-19T10:06:34;45.80;;;27.50;;
12480;SDS011;6305;48.398;11.762;2022-08-19T10:09:03;41.13;;;26.33;;
12480;SDS011;6305;48.398;11.762;2022-08-19T10:11:31;40.80;;;26.73;;
12480;SDS011;6305;48.398;11.762;2022-08-19T10:13:59;41.00;;;25.17;;
12480;SDS011;6305;48.398;11.762;2022-08-19T10:16:26;37.55;;;23.42;;
12480;SDS011;6305;48.398;11.762;2022-08-19T10:18:53;33.08;;;22.30;;
12480;SDS011;6305;48.398;11.762;2022-08-19T10:21:23;32.78;;;22.17;;
12480;SDS011;6305;48.398;11.762;2022-08-19T10:23:52;32.35;;;22.40;;
12480;SDS011;6305;48.398;11.762;2022-08-19T10:26:22;26.00;;;19.25;;
12480;SDS011;6305;48.398;11.762;2022-08-19T10:28:50;26.65;;;19.30;;
12480;SDS011;6305;48.398;11.762;2022-08-19T10:31:18;24.73;;;17.88;;
12480;SDS011;6305;48.398;11.762;2022-08-19T10:33:46;26.25;;;18.80;;
12480;SDS011;6305;48.398;11.762;2022-08-19T10:36:14;20.25;;;15.95;;
12480;SDS011;6305;48.398;11.762;2022-08-19T10:38:45;20.42;;;16.27;;
12480;SDS011;6305;48.398;11.762;2022-08-19T10:41:15;21.80;;;16.00;;
12480;SDS011;6305;48.398;11.762;2022-08-19T10:43:43;19.15;;;14.55;;
12480;SDS011;6305;48.398;11.762;2022-08-19T10:46:11;17.20;;;13.70;;
12480;SDS011;6305;48.398;11.762;2022-08-19T10:48:41;15.27;;;12.57;;
12480;SDS011;6305;48.398;11.762;2022-08-19T10:51:09;14.48;;;11.40;;
12480;SDS011;6305;48.398;11.762;2022-08-19T10:53:56;9.60;;;8.57;;
12480;SDS011;6305;48.398;11.762;2022-08-19T10:56:23;7.55;;;6.85;;
12480;SDS011;6305;48.398;11.762;2022-08-19T10:59:08;7.32;;;6.43;;
12480;SDS011;6305;48.398;11.762;2022-08-19T11:01:35;7.10;;;6.40;;
12480;SDS011;6305;48.398;11.762;2022-08-19T11:04:02;7.22;;;6.53;;
12480;SDS011;6305;48.398;11.762;2022-08-19T11:06:33;7.22;;;6.47;;
12480;SDS011;6305;48.398;11.762;2022-08-19T11:09:01;6.70;;;6.07;;
12480;SDS011;6305;48.398;11.762;2022-08-19T11:11:29;8.73;;;7.85;;
12480;SDS011;6305;48.398;11.762;2022-08-19T11:13:57;9.95;;;8.77;;
12480;SDS011;6305;48.398;11.762;2022-08-19T11:16:25;11.45;;;9.15;;
12480;SDS011;6305;48.398;11.762;2022-08-19T11:18:56;11.20;;;10.00;;
12480;SDS011;6305;48.398;11.762;2022-08-19T11:21:25;12.35;;;10.95;;
12480;SDS011;6305;48.398;11.762;2022-08-19T11:23:55;10.60;;;9.50;;
12480;SDS011;6305;48.398;11.762;2022-08-19T11:26:24;10.20;;;9.20;;
12480;SDS011;6305;48.398;11.762;2022-08-19T11:28:51;10.23;;;9.23;;
12480;SDS011;6305;48.398;11.762;2022-08-19T11:31:20;11.63;;;10.25;;
12480;SDS011;6305;48.398;11.762;2022-08-19T11:33:49;11.55;;;10.45;;
12480;SDS011;6305;48.398;11.762;2022-08-19T11:36:18;10.05;;;9.05;;
12480;SDS011;6305;48.398;11.762;2022-08-19T11:38:45;11.52;;;10.32;;
12480;SDS011;6305;48.398;11.762;2022-08-19T11:41:13;11.75;;;10.63;;
12480;SDS011;6305;48.398;11.762;2022-08-19T11:43:42;12.15;;;10.95;;
12480;SDS011;6305;48.398;11.762;2022-08-19T11:46:10;12.55;;;11.25;;
12480;SDS011;6305;48.398;11.762;2022-08-19T11:48:39;12.45;;;11.20;;
12480;SDS011;6305;48.398;11.762;2022-08-19T11:51:07;14.23;;;12.23;;
12480;SDS011;6305;48.398;11.762;2022-08-19T11:53:38;14.10;;;12.57;;
12480;SDS011;6305;48.398;11.762;2022-08-19T11:56:06;14.20;;;12.73;;
12480;SDS011;6305;48.398;11.762;2022-08-19T11:58:34;15.35;;;13.15;;
12480;SDS011;6305;48.398;11.762;2022-08-19T12:01:05;13.43;;;11.98;;
12480;SDS011;6305;48.398;11.762;2022-08-19T12:03:33;13.50;;;11.65;;
12480;SDS011;6305;48.398;11.762;2022-08-19T12:06:02;12.35;;;10.88;;
12480;SDS011;6305;48.398;11.762;2022-08-19T12:08:30;13.50;;;11.85;;
12480;SDS011;6305;48.398;11.762;2022-08-19T12:10:57;13.25;;;11.85;;
12480;SDS011;6305;48.398;11.762;2022-08-19T12:13:26;13.15;;;11.60;;
12480;SDS011;6305;48.398;11.762;2022-08-19T12:15:53;12.07;;;10.77;;
12480;SDS011;6305;48.398;11.762;2022-08-19T12:18:21;10.93;;;9.82;;
12480;SDS011;6305;48.398;11.762;2022-08-19T12:20:50;8.93;;;8.02;;
12480;SDS011;6305;48.398;11.762;2022-08-19T12:23:17;8.75;;;7.57;;
12480;SDS011;6305;48.398;11.762;2022-08-19T12:25:45;7.45;;;6.75;;
12480;SDS011;6305;48.398;11.762;2022-08-19T12:28:16;7.57;;;6.70;;
12480;SDS011;6305;48.398;11.762;2022-08-19T12:30:43;8.80;;;7.68;;
12480;SDS011;6305;48.398;11.762;2022-08-19T12:33:10;10.27;;;8.88;;
12480;SDS011;6305;48.398;11.762;2022-08-19T12:35:40;9.90;;;8.60;;
12480;SDS011;6305;48.398;11.762;2022-08-19T12:38:08;9.68;;;8.27;;
12480;SDS011;6305;48.398;11.762;2022-08-19T12:40:35;9.23;;;7.90;;
12480;SDS011;6305;48.398;11.762;2022-08-19T12:43:05;8.07;;;7.18;;
12480;SDS011;6305;48.398;11.762;2022-08-19T12:45:31;6.57;;;5.75;;
12480;SDS011;6305;48.398;11.762;2022-08-19T12:47:58;4.88;;;4.40;;
12480;SDS011;6305;48.398;11.762;2022-08-19T12:50:25;4.20;;;3.80;;
12480;SDS011;6305;48.398;11.762;2022-08-19T12:52:53;3.63;;;3.33;;
12480;SDS011;6305;48.398;11.762;2022-08-19T12:55:20;3.42;;;3.13;;
12480;SDS011;6305;48.398;11.762;2022-08-19T12:57:46;3.55;;;3.25;;
12480;SDS011;6305;48.398;11.762;2022-08-19T13:00:14;3.28;;;2.97;;
12480;SDS011;6305;48.398;11.762;2022-08-19T13:02:43;3.35;;;3.05;;
12480;SDS011;6305;48.398;11.762;2022-08-19T13:05:12;3.30;;;3.00;;
12480;SDS011;6305;48.398;11.762;2022-08-19T13:07:40;3.15;;;2.85;;
12480;SDS011;6305;48.398;11.762;2022-08-19T13:10:11;3.28;;;2.70;;
12480;SDS011;6305;48.398;11.762;2022-08-19T13:12:40;2.47;;;2.28;;
12480;SDS011;6305;48.398;11.762;2022-08-19T13:15:08;1.90;;;1.80;;
12480;SDS011;6305;48.398;11.762;2022-08-19T13:17:35;2.17;;;1.90;;
12480;SDS011;6305;48.398;11.762;2022-08-19T13:20:03;1.77;;;1.65;;
12480;SDS011;6305;48.398;11.762;2022-08-19T13:22:32;1.67;;;1.50;;
12480;SDS011;6305;48.398;11.762;2022-08-19T13:25:00;1.50;;;1.40;;
12480;SDS011;6305;48.398;11.762;2022-08-19T13:27:28;1.38;;;1.17;;
12480;SDS011;6305;48.398;11.762;2022-08-19T13:29:55;1.73;;;1.48;;
12480;SDS011;6305;48.398;11.762;2022-08-19T13:32:39;1.40;;;1.30;;
12480;SDS011;6305;48.398;11.762;2022-08-19T13:35:23;1.50;;;1.40;;
12480;SDS011;6305;48.398;11.762;2022-08-19T13:37:50;2.03;;;1.50;;
12480;SDS011;6305;48.398;11.762;2022-08-19T13:40:18;1.55;;;1.45;;
12480;SDS011;6305;48.398;11.762;2022-08-19T13:42:49;1.90;;;1.77;;
12480;SDS011;6305;48.398;11.762;2022-08-19T13:45:18;2.08;;;1.88;;
12480;SDS011;6305;48.398;11.762;2022-08-19T13:47:47;2.20;;;2.00;;
12480;SDS011;6305;48.398;11.762;2022-08-19T13:50:15;2.28;;;2.08;;
12480;SDS011;6305;48.398;11.762;2022-08-19T13:52:44;2.17;;;1.98;;
12480;SDS011;6305;48.398;11.762;2022-08-19T13:55:12;2.42;;;2.22;;
12480;SDS011;6305;48.398;11.762;2022-08-19T13:57:40;2.15;;;1.95;;
12480;SDS011;6305;48.398;11.762;2022-08-19T14:00:10;2.28;;;2.08;;
12480;SDS011;6305;48.398;11.762;2022-08-19T14:02:39;2.10;;;1.90;;
12480;SDS011;6305;48.398;11.762;2022-08-19T14:05:09;2.10;;;1.98;;
12480;SDS011;6305;48.398;11.762;2022-08-19T14:07:37;1.75;;;1.65;;
12480;SDS011;6305;48.398;11.762;2022-08-19T14:10:04;1.35;;;1.20;;
12480;SDS011;6305;48.398;11.762;2022-08-19T14:12:32;1.17;;;1.08;;
12480;SDS011;6305;48.398;11.762;2022-08-19T14:14:59;1.30;;;1.20;;
12480;SDS011;6305;48.398;11.762;2022-08-19T14:17:28;1.30;;;1.20;;
12480;SDS011;6305;48.398;11.762;2022-08-19T14:19:56;1.30;;;1.20;;
12480;SDS011;6305;48.398;11.762;2022-08-19T14:22:23;1.50;;;1.40;;
12480;SDS011;6305;48.398;11.762;2022-08-19T14:24:50;0.90;;;0.90;;
12480;SDS011;6305;48.398;11.762;2022-08-19T14:27:16;1.60;;;0.90;;
12480;SDS011;6305;48.398;11.762;2022-08-19T14:29:43;1.50;;;1.35;;
12480;SDS011;6305;48.398;11.762;2022-08-19T14:32:10;1.40;;;1.30;;
12480;SDS011;6305;48.398;11.762;2022-08-19T14:34:39;1.58;;;1.48;;
12480;SDS011;6305;48.398;11.762;2022-08-19T14:37:05;1.80;;;1.70;;
12480;SDS011;6305;48.398;11.762;2022-08-19T14:39:33;2.20;;;2.00;;
12480;SDS011;6305;48.398;11.762;2022-08-19T14:41:59;2.22;;;1.98;;